createdAt,value
2022-09-25T00:00:06.476Z,95.83
2022-09-25T00:02:38.841Z,95.93
2022-09-25T00:05:09.829Z,96.05
2022-09-25T00:07:39.614Z,96.08
2022-09-25T00:10:10.547Z,96.12
2022-09-25T00:12:40.212Z,96.20
2022-09-25T00:15:11.137Z,96.22
2022-09-25T00:17:43.526Z,96.24
2022-09-25T00:20:10.789Z,96.35
2022-09-25T00:22:42.262Z,96.30
2022-09-25T00:25:15.613Z,96.47
2022-09-25T00:27:48.517Z,96.45
2022-09-25T00:30:18.199Z,96.46
2022-09-25T00:32:50.562Z,96.63
2022-09-25T00:35:20.454Z,96.78
2022-09-25T00:37:50.120Z,96.80
2022-09-25T00:40:20.009Z,96.89
2022-09-25T00:42:49.756Z,96.86
2022-09-25T00:45:22.503Z,96.87
2022-09-25T00:48:02.015Z,96.93
2022-09-25T00:50:37.053Z,96.98
2022-09-25T00:53:12.041Z,96.99
2022-09-25T00:55:44.557Z,97.03
2022-09-25T00:58:17.008Z,97.02
2022-09-25T01:00:47.045Z,97.03
2022-09-25T01:03:20.287Z,97.08
2022-09-25T01:05:51.512Z,97.03
2022-09-25T01:08:24.780Z,97.00
2022-09-25T01:10:54.722Z,97.18
2022-09-25T01:13:24.657Z,97.11
2022-09-25T01:16:00.232Z,97.17
2022-09-25T01:18:45.738Z,97.00
2022-09-25T01:21:26.577Z,97.13
2022-09-25T01:24:34.772Z,97.18
2022-09-25T01:27:26.121Z,97.16
2022-09-25T01:30:06.398Z,97.26
2022-09-25T01:32:46.263Z,97.27
2022-09-25T01:35:21.221Z,97.25
2022-09-25T01:37:57.760Z,97.36
2022-09-25T01:40:33.704Z,97.45
2022-09-25T01:43:10.550Z,97.41
2022-09-25T01:45:49.702Z,97.39
2022-09-25T01:48:25.238Z,97.52
2022-09-25T01:51:00.930Z,97.51
2022-09-25T01:53:35.347Z,97.48
2022-09-25T01:56:10.957Z,97.46
2022-09-25T01:58:45.915Z,97.41
2022-09-25T02:01:23.464Z,97.38
2022-09-25T02:03:58.028Z,97.30
2022-09-25T02:06:28.313Z,97.29
2022-09-25T02:09:01.313Z,97.19
2022-09-25T02:11:38.002Z,97.26
2022-09-25T02:14:13.809Z,97.27
2022-09-25T02:16:46.167Z,97.20
2022-09-25T02:19:45.652Z,97.15
2022-09-25T02:22:22.521Z,97.13
2022-09-25T02:24:59.284Z,97.09
2022-09-25T02:27:30.963Z,97.04
2022-09-25T02:30:01.603Z,96.95
2022-09-25T02:32:35.853Z,97.02
2022-09-25T02:35:05.991Z,96.94
2022-09-25T02:37:35.703Z,96.97
2022-09-25T02:40:07.525Z,96.88
2022-09-25T02:42:45.521Z,96.95
2022-09-25T02:45:36.560Z,96.89
2022-09-25T02:48:16.580Z,96.99
2022-09-25T02:50:54.685Z,97.08
2022-09-25T02:53:32.642Z,97.21
2022-09-25T02:56:06.822Z,97.30
2022-09-25T02:58:41.604Z,97.48
2022-09-25T03:01:15.613Z,97.56
2022-09-25T03:03:50.392Z,97.70
2022-09-25T03:06:21.162Z,97.81
2022-09-25T03:08:53.143Z,97.80
2022-09-25T03:11:24.333Z,97.88
2022-09-25T03:13:59.143Z,97.88
2022-09-25T03:16:37.293Z,97.86
2022-09-25T03:19:10.204Z,97.87
2022-09-25T03:21:39.881Z,97.78
2022-09-25T03:24:09.919Z,97.86
2022-09-25T03:26:40.694Z,97.85
2022-09-25T03:29:10.539Z,97.79
2022-09-25T03:31:41.297Z,97.66
2022-09-25T03:34:14.736Z,97.58
2022-09-25T03:36:47.623Z,97.46
2022-09-25T03:39:18.860Z,97.42
2022-09-25T03:41:48.737Z,97.27
2022-09-25T03:44:18.550Z,97.28
2022-09-25T03:46:48.225Z,97.26
2022-09-25T03:49:20.557Z,97.08
2022-09-25T03:51:50.257Z,97.01
2022-09-25T03:54:20.048Z,96.88
2022-09-25T03:56:49.762Z,96.87
2022-09-25T03:59:19.620Z,96.69
2022-09-25T04:01:49.888Z,96.82
2022-09-25T04:04:22.794Z,96.61
2022-09-25T04:06:52.528Z,96.56
2022-09-25T04:09:22.205Z,96.56
2022-09-25T04:11:52.101Z,96.59
2022-09-25T04:14:21.823Z,96.63
2022-09-25T04:16:52.121Z,96.48
2022-09-25T04:19:24.423Z,96.58
2022-09-25T04:21:54.160Z,96.46
2022-09-25T04:24:36.254Z,96.46
2022-09-25T04:27:06.064Z,96.50
2022-09-25T04:29:35.725Z,96.51
2022-09-25T04:32:17.945Z,96.55
2022-09-25T04:34:50.261Z,96.48
2022-09-25T04:37:22.922Z,96.48
2022-09-25T04:39:52.625Z,96.51
2022-09-25T04:42:24.807Z,96.51
2022-09-25T04:44:55.828Z,96.55
2022-09-25T04:47:26.537Z,96.50
2022-09-25T04:49:59.289Z,96.44
2022-09-25T04:52:33.302Z,96.40
2022-09-25T04:55:04.343Z,96.34
2022-09-25T04:57:57.198Z,96.38
2022-09-25T05:00:24.752Z,96.40
2022-09-25T05:02:55.088Z,96.41
2022-09-25T05:05:29.388Z,96.40
2022-09-25T05:08:00.793Z,96.39
2022-09-25T05:10:32.502Z,96.40
2022-09-25T05:13:03.751Z,96.33
2022-09-25T05:15:35.957Z,96.28
2022-09-25T05:18:07.681Z,96.23
2022-09-25T05:20:40.863Z,96.37
2022-09-25T05:23:11.118Z,96.44
2022-09-25T05:25:40.995Z,96.31
2022-09-25T05:28:11.732Z,96.34
2022-09-25T05:30:41.861Z,96.33
2022-09-25T05:33:11.606Z,96.39
2022-09-25T05:35:43.886Z,96.40
2022-09-25T05:38:13.654Z,96.40
2022-09-25T05:40:43.524Z,96.35
2022-09-25T05:43:13.488Z,96.39
2022-09-25T05:45:43.238Z,96.38
2022-09-25T05:48:13.178Z,96.39
2022-09-25T05:50:45.447Z,96.37
2022-09-25T05:53:15.120Z,96.27
2022-09-25T05:55:44.948Z,96.35
2022-09-25T05:58:14.912Z,96.37
2022-09-25T06:00:44.709Z,96.44
2022-09-25T06:03:14.438Z,96.39
2022-09-25T06:05:47.082Z,96.49
2022-09-25T06:08:17.417Z,96.54
2022-09-25T06:10:47.122Z,96.56
2022-09-25T06:13:16.802Z,96.69
2022-09-25T06:15:46.589Z,96.77
2022-09-25T06:18:16.415Z,96.95
2022-09-25T06:20:48.785Z,97.02
2022-09-25T06:23:19.024Z,97.01
2022-09-25T06:25:48.880Z,97.17
2022-09-25T06:28:18.676Z,97.31
2022-09-25T06:30:48.505Z,97.33
2022-09-25T06:33:18.308Z,97.48
2022-09-25T06:35:51.862Z,97.66
2022-09-25T06:38:21.619Z,97.76
2022-09-25T06:40:51.471Z,97.87
2022-09-25T06:43:21.516Z,97.96
2022-09-25T06:45:51.453Z,98.19
2022-09-25T06:48:22.271Z,98.37
2022-09-25T06:50:57.593Z,98.53
2022-09-25T06:53:28.757Z,98.59
2022-09-25T06:56:01.027Z,98.70
2022-09-25T06:58:32.062Z,98.84
2022-09-25T07:01:05.121Z,99.00
2022-09-25T07:03:47.440Z,99.17
2022-09-25T07:06:21.866Z,99.31
2022-09-25T07:08:52.630Z,99.59
2022-09-25T07:11:24.113Z,99.86
2022-09-25T07:13:55.262Z,99.92
2022-09-25T07:16:26.960Z,100.00
2022-09-25T07:18:58.613Z,100.00
2022-09-25T07:21:32.556Z,100.00
2022-09-25T07:24:02.425Z,100.00
2022-09-25T07:26:34.740Z,100.00
2022-09-25T07:29:08.046Z,100.00
2022-09-25T07:31:38.990Z,100.00
2022-09-25T07:34:09.600Z,100.00
2022-09-25T07:36:42.878Z,100.00
2022-09-25T07:39:18.192Z,100.00
2022-09-25T07:41:48.644Z,100.00
2022-09-25T07:44:28.390Z,100.00
2022-09-25T07:47:01.029Z,100.00
2022-09-25T07:49:30.748Z,100.00
2022-09-25T07:52:03.764Z,100.00
2022-09-25T07:54:34.783Z,100.00
2022-09-25T07:57:04.620Z,100.00
2022-09-25T07:59:34.379Z,100.00
2022-09-25T08:02:05.073Z,100.00
2022-09-25T08:04:34.850Z,100.00
2022-09-25T08:07:07.513Z,100.00
2022-09-25T08:09:37.237Z,100.00
2022-09-25T08:12:07.806Z,100.00
2022-09-25T08:14:37.501Z,100.00
2022-09-25T08:17:07.185Z,100.00
2022-09-25T08:19:36.892Z,100.00
2022-09-25T08:22:10.313Z,100.00
2022-09-25T08:24:40.382Z,100.00
2022-09-25T08:27:10.226Z,100.00
2022-09-25T08:29:39.924Z,100.00
2022-09-25T08:32:10.084Z,100.00
2022-09-25T08:34:41.470Z,100.00
2022-09-25T08:37:14.651Z,100.00
2022-09-25T08:39:44.384Z,100.00
2022-09-25T08:42:20.936Z,100.00
2022-09-25T08:45:21.539Z,100.00
2022-09-25T08:48:16.680Z,100.00
2022-09-25T08:50:46.502Z,100.00
2022-09-25T08:53:24.367Z,100.00
2022-09-25T08:56:07.101Z,100.00
2022-09-25T08:58:42.833Z,99.88
2022-09-25T09:01:22.497Z,99.58
2022-09-25T09:03:58.135Z,99.30
2022-09-25T09:06:30.840Z,98.86
2022-09-25T09:09:09.566Z,98.70
2022-09-25T09:11:44.404Z,98.39
2022-09-25T09:14:18.657Z,98.04
2022-09-25T09:16:53.184Z,97.91
2022-09-25T09:19:22.993Z,97.36
2022-09-25T09:22:00.975Z,97.17
2022-09-25T09:24:43.501Z,96.74
2022-09-25T09:27:26.473Z,96.20
2022-09-25T09:30:12.126Z,95.54
2022-09-25T09:32:56.480Z,94.91
2022-09-25T09:35:34.235Z,94.45
2022-09-25T09:38:15.166Z,93.73
2022-09-25T09:41:04.821Z,93.33
2022-09-25T09:43:56.495Z,92.99
2022-09-25T09:46:37.278Z,92.55
2022-09-25T09:49:16.366Z,92.24
2022-09-25T09:51:51.749Z,91.87
2022-09-25T09:54:27.852Z,91.63
2022-09-25T09:57:02.493Z,91.52
2022-09-25T09:59:40.202Z,91.21
2022-09-25T10:02:22.626Z,90.92
2022-09-25T10:04:53.746Z,90.85
2022-09-25T10:07:25.602Z,90.47
2022-09-25T10:09:58.286Z,90.24
2022-09-25T10:12:34.688Z,90.14
2022-09-25T10:15:07.965Z,89.84
2022-09-25T10:17:39.010Z,89.85
2022-09-25T10:20:23.329Z,89.66
2022-09-25T10:22:58.671Z,89.47
2022-09-25T10:25:40.449Z,89.50
2022-09-25T10:28:29.360Z,89.33
2022-09-25T10:31:01.059Z,89.37
2022-09-25T10:33:33.511Z,89.10
2022-09-25T10:36:03.517Z,88.91
2022-09-25T10:38:42.212Z,88.77
2022-09-25T10:41:15.222Z,88.25
2022-09-25T10:44:00.223Z,88.13
2022-09-25T10:46:45.021Z,87.97
2022-09-25T10:49:35.299Z,87.75
2022-09-25T10:52:08.201Z,87.22
2022-09-25T10:54:44.358Z,87.12
2022-09-25T10:57:25.647Z,86.73
2022-09-25T10:59:59.599Z,86.50
2022-09-25T11:02:38.193Z,86.71
2022-09-25T11:05:10.193Z,86.69
2022-09-25T11:07:40.246Z,86.65
2022-09-25T11:10:23.128Z,86.51
2022-09-25T11:12:54.570Z,86.63
2022-09-25T11:15:29.537Z,86.47
2022-09-25T11:18:00.265Z,86.43
2022-09-25T11:20:32.901Z,86.78
2022-09-25T11:23:24.275Z,87.34
2022-09-25T11:26:00.377Z,87.78
2022-09-25T11:28:37.845Z,88.15
2022-09-25T11:31:18.446Z,88.56
2022-09-25T11:33:54.173Z,89.04
2022-09-25T11:36:30.396Z,89.47
2022-09-25T11:39:18.586Z,90.09
2022-09-25T11:41:53.459Z,90.61
2022-09-25T11:44:32.254Z,91.11
2022-09-25T11:47:11.213Z,91.69
2022-09-25T11:49:44.884Z,92.24
2022-09-25T11:52:37.492Z,92.94
2022-09-25T11:55:34.745Z,93.45
2022-09-25T11:58:26.450Z,93.72
2022-09-25T12:01:03.421Z,94.27
2022-09-25T12:03:55.844Z,94.65
2022-09-25T12:06:49.199Z,94.87
2022-09-25T12:09:37.228Z,95.45
2022-09-25T12:12:15.698Z,95.87
2022-09-25T12:14:58.560Z,95.97
2022-09-25T12:17:38.830Z,96.39
2022-09-25T12:20:20.955Z,96.53
2022-09-25T12:23:00.842Z,96.71
2022-09-25T12:25:44.298Z,96.83
2022-09-25T12:28:22.198Z,96.95
2022-09-25T12:31:05.749Z,97.00
2022-09-25T12:33:42.456Z,96.82
2022-09-25T12:36:20.760Z,96.76
2022-09-25T12:38:55.910Z,96.40
2022-09-25T12:41:33.502Z,96.31
2022-09-25T12:44:08.075Z,95.98
2022-09-25T12:46:45.382Z,95.63
2022-09-25T12:49:20.678Z,95.27
2022-09-25T12:51:55.232Z,95.17
2022-09-25T12:54:30.658Z,94.73
2022-09-25T12:57:05.189Z,94.51
2022-09-25T12:59:46.022Z,94.13
2022-09-25T13:02:22.841Z,93.93
2022-09-25T13:05:04.613Z,93.71
2022-09-25T13:07:45.348Z,93.69
2022-09-25T13:10:26.657Z,93.20
2022-09-25T13:13:00.702Z,92.83
2022-09-25T13:15:35.369Z,92.45
2022-09-25T13:18:18.639Z,92.18
2022-09-25T13:20:53.837Z,91.56
2022-09-25T13:23:35.777Z,91.10
2022-09-25T13:26:13.697Z,90.56
2022-09-25T13:28:52.855Z,90.08
2022-09-25T13:31:27.452Z,89.70
2022-09-25T13:34:05.484Z,89.23
2022-09-25T13:36:40.844Z,88.87
2022-09-25T13:39:34.130Z,88.56
2022-09-25T13:42:08.804Z,88.39
2022-09-25T13:44:52.706Z,87.90
2022-09-25T13:47:46.673Z,87.87
2022-09-25T13:50:41.626Z,87.64
2022-09-25T13:53:37.188Z,87.74
2022-09-25T13:56:46.024Z,87.49
2022-09-25T13:59:40.834Z,87.35
2022-09-25T14:02:40.550Z,87.00
2022-09-25T14:05:10.701Z,86.95
2022-09-25T14:07:44.429Z,86.58
2022-09-25T14:10:15.062Z,86.29
2022-09-25T14:12:50.390Z,86.04
2022-09-25T14:15:26.976Z,86.10
2022-09-25T14:17:59.069Z,85.90
2022-09-25T14:20:38.640Z,85.82
2022-09-25T14:23:16.866Z,85.71
2022-09-25T14:25:47.806Z,85.53
2022-09-25T14:28:24.385Z,85.41
2022-09-25T14:31:06.370Z,84.92
2022-09-25T14:34:14.810Z,84.41
2022-09-25T14:37:01.819Z,83.96
2022-09-25T14:39:35.609Z,83.62
2022-09-25T14:42:44.089Z,83.45
2022-09-25T14:45:45.738Z,83.06
2022-09-25T14:48:20.404Z,82.90
2022-09-25T14:50:54.570Z,82.75
2022-09-25T14:53:30.989Z,82.57
2022-09-25T14:56:09.579Z,82.41
2022-09-25T14:58:42.861Z,81.99
2022-09-25T15:01:23.606Z,81.77
2022-09-25T15:03:53.538Z,81.50
2022-09-25T15:06:29.052Z,81.42
2022-09-25T15:08:59.046Z,81.18
2022-09-25T15:11:30.266Z,80.90
2022-09-25T15:14:13.729Z,80.86
2022-09-25T15:16:59.213Z,80.67
2022-09-25T15:19:33.238Z,80.54
2022-09-25T15:22:03.611Z,80.70
2022-09-25T15:24:37.002Z,80.67
2022-09-25T15:27:09.165Z,80.72
2022-09-25T15:29:40.985Z,80.76
2022-09-25T15:32:20.306Z,80.84
2022-09-25T15:34:50.416Z,81.01
2022-09-25T15:37:26.479Z,81.11
2022-09-25T15:39:57.016Z,81.21
2022-09-25T15:42:26.705Z,81.35
2022-09-25T15:45:01.104Z,81.47
2022-09-25T15:47:58.068Z,81.86
2022-09-25T15:50:30.662Z,81.82
2022-09-25T15:53:03.392Z,81.99
2022-09-25T15:55:34.281Z,82.13
2022-09-25T15:58:13.642Z,82.36
2022-09-25T16:01:10.045Z,82.42
2022-09-25T16:04:04.660Z,82.38
2022-09-25T16:06:41.038Z,82.65
2022-09-25T16:09:24.057Z,82.76
2022-09-25T16:11:53.885Z,82.90
2022-09-25T16:14:29.533Z,83.05
2022-09-25T16:17:00.357Z,83.35
2022-09-25T16:19:37.523Z,83.47
2022-09-25T16:22:23.464Z,83.68
2022-09-25T16:24:55.415Z,83.75
2022-09-25T16:27:29.583Z,83.96
2022-09-25T16:30:04.378Z,84.04
2022-09-25T16:32:34.974Z,84.14
2022-09-25T16:35:07.965Z,84.32
2022-09-25T16:37:39.042Z,84.60
2022-09-25T16:40:24.937Z,84.63
2022-09-25T16:42:57.582Z,84.74
2022-09-25T16:45:31.785Z,84.95
2022-09-25T16:48:04.354Z,85.24
2022-09-25T16:50:43.993Z,85.32
2022-09-25T16:53:14.993Z,85.35
2022-09-25T16:55:53.565Z,85.47
2022-09-25T16:58:24.054Z,85.65
2022-09-25T17:00:54.138Z,85.79
2022-09-25T17:03:24.240Z,85.77
2022-09-25T17:05:58.232Z,85.75
2022-09-25T17:08:28.155Z,85.84
2022-09-25T17:10:57.916Z,85.77
2022-09-25T17:13:31.205Z,85.96
2022-09-25T17:16:01.091Z,86.11
2022-09-25T17:18:30.886Z,86.21
2022-09-25T17:21:06.149Z,86.40
2022-09-25T17:23:36.208Z,86.33
2022-09-25T17:26:08.343Z,86.52
2022-09-25T17:28:38.113Z,86.75
2022-09-25T17:31:08.125Z,86.87
2022-09-25T17:33:37.902Z,86.99
2022-09-25T17:36:13.520Z,87.06
2022-09-25T17:38:43.351Z,87.34
2022-09-25T17:41:22.388Z,87.25
2022-09-25T17:43:52.753Z,87.46
2022-09-25T17:46:23.495Z,87.45
2022-09-25T17:48:54.865Z,87.71
2022-09-25T17:51:29.705Z,87.70
2022-09-25T17:54:02.343Z,87.76
2022-09-25T17:56:34.329Z,87.74
2022-09-25T17:59:05.280Z,87.91
2022-09-25T18:01:39.433Z,87.82
2022-09-25T18:04:22.256Z,88.00
2022-09-25T18:06:55.381Z,88.01
2022-09-25T18:09:25.130Z,88.18
2022-09-25T18:11:54.806Z,88.23
2022-09-25T18:14:24.736Z,88.28
2022-09-25T18:16:54.409Z,88.45
2022-09-25T18:19:36.522Z,88.49
2022-09-25T18:22:22.045Z,88.51
2022-09-25T18:24:56.433Z,88.77
2022-09-25T18:27:27.957Z,88.81
2022-09-25T18:29:58.381Z,89.01
2022-09-25T18:32:28.263Z,89.11
2022-09-25T18:34:57.967Z,89.19
2022-09-25T18:37:30.366Z,89.23
2022-09-25T18:40:00.116Z,89.45
2022-09-25T18:42:29.925Z,89.46
2022-09-25T18:45:00.389Z,89.55
2022-09-25T18:47:30.769Z,89.68
2022-09-25T18:50:00.481Z,89.69
2022-09-25T18:52:32.774Z,89.89
2022-09-25T18:55:03.080Z,89.83
2022-09-25T18:57:36.275Z,89.98
2022-09-25T19:00:09.488Z,90.02
2022-09-25T19:02:41.101Z,90.07
2022-09-25T19:05:12.122Z,90.10
2022-09-25T19:07:44.439Z,90.34
2022-09-25T19:10:14.146Z,90.42
2022-09-25T19:12:43.886Z,90.48
2022-09-25T19:15:13.996Z,90.49
2022-09-25T19:17:43.755Z,90.64
2022-09-25T19:20:13.682Z,90.68
2022-09-25T19:22:45.989Z,90.75
2022-09-25T19:25:20.111Z,90.84
2022-09-25T19:27:51.957Z,90.95
2022-09-25T19:30:21.717Z,91.01
2022-09-25T19:32:51.601Z,91.16
2022-09-25T19:35:21.434Z,91.20
2022-09-25T19:37:54.086Z,91.36
2022-09-25T19:40:36.249Z,91.37
2022-09-25T19:43:06.370Z,91.53
2022-09-25T19:45:37.328Z,91.51
2022-09-25T19:48:07.344Z,91.80
2022-09-25T19:50:37.185Z,91.68
2022-09-25T19:53:09.581Z,91.75
2022-09-25T19:55:41.063Z,91.80
2022-09-25T19:58:10.980Z,91.93
2022-09-25T20:00:43.905Z,92.12
2022-09-25T20:03:14.252Z,92.14
2022-09-25T20:05:44.874Z,92.24
2022-09-25T20:08:17.501Z,92.38
2022-09-25T20:10:47.417Z,92.47
2022-09-25T20:13:17.478Z,92.54
2022-09-25T20:15:50.233Z,92.62
2022-09-25T20:18:20.348Z,92.75
2022-09-25T20:20:50.103Z,92.76
2022-09-25T20:23:22.422Z,92.93
2022-09-25T20:25:52.306Z,93.08
2022-09-25T20:28:22.405Z,93.07
2022-09-25T20:30:52.176Z,93.15
2022-09-25T20:33:21.931Z,93.29
2022-09-25T20:35:51.686Z,93.46
2022-09-25T20:38:25.256Z,93.50
2022-09-25T20:40:55.577Z,93.70
2022-09-25T20:43:26.025Z,93.85
2022-09-25T20:46:01.225Z,93.81
2022-09-25T20:48:31.094Z,94.01
2022-09-25T20:51:00.949Z,94.04
2022-09-25T20:53:33.441Z,94.26
2022-09-25T20:56:06.958Z,94.33
2022-09-25T20:58:37.209Z,94.47
2022-09-25T21:01:08.801Z,94.60
2022-09-25T21:03:41.413Z,94.52
2022-09-25T21:06:14.509Z,94.73
2022-09-25T21:08:46.945Z,94.91
2022-09-25T21:11:16.620Z,94.96
2022-09-25T21:13:46.374Z,94.93
2022-09-25T21:16:17.738Z,95.14
2022-09-25T21:18:47.511Z,95.13
2022-09-25T21:21:18.113Z,95.31
2022-09-25T21:23:51.849Z,95.31
2022-09-25T21:26:21.762Z,95.42
2022-09-25T21:28:53.906Z,95.53
2022-09-25T21:31:25.720Z,95.56
2022-09-25T21:33:56.145Z,95.60
2022-09-25T21:36:26.585Z,95.73
2022-09-25T21:38:59.067Z,95.70
2022-09-25T21:41:33.336Z,95.74
2022-09-25T21:44:05.329Z,95.91
2022-09-25T21:46:36.174Z,95.91
2022-09-25T21:49:08.854Z,95.97
2022-09-25T21:51:41.070Z,95.99
2022-09-25T21:54:14.189Z,96.13
2022-09-25T21:56:44.578Z,96.18
2022-09-25T21:59:14.975Z,96.25
2022-09-25T22:01:45.213Z,96.27
2022-09-25T22:04:16.515Z,96.29
2022-09-25T22:06:48.427Z,96.37
2022-09-25T22:09:22.634Z,96.38
2022-09-25T22:11:53.013Z,96.54
2022-09-25T22:14:24.048Z,96.57
2022-09-25T22:16:55.047Z,96.68
2022-09-25T22:19:26.837Z,96.78
2022-09-25T22:21:58.475Z,96.87
2022-09-25T22:24:31.108Z,96.91
2022-09-25T22:27:00.813Z,97.01
2022-09-25T22:29:30.553Z,97.00
2022-09-25T22:32:01.851Z,97.14
2022-09-25T22:34:33.065Z,97.18
2022-09-25T22:37:02.812Z,97.18
2022-09-25T22:39:35.129Z,97.25
2022-09-25T22:42:04.871Z,97.45
2022-09-25T22:44:34.693Z,97.49
2022-09-25T22:47:04.470Z,97.60
2022-09-25T22:49:34.154Z,97.63
2022-09-25T22:52:05.384Z,97.74
2022-09-25T22:54:37.706Z,97.86
2022-09-25T22:57:07.407Z,97.92
2022-09-25T22:59:37.138Z,97.94
2022-09-25T23:02:06.999Z,98.10
2022-09-25T23:04:36.762Z,98.20
2022-09-25T23:07:06.511Z,98.15
2022-09-25T23:09:38.930Z,98.36
2022-09-25T23:12:08.801Z,98.29
2022-09-25T23:14:38.486Z,98.27
2022-09-25T23:17:08.267Z,98.34
2022-09-25T23:19:38.061Z,98.41
2022-09-25T23:22:08.105Z,98.44
2022-09-25T23:24:41.017Z,98.35
2022-09-25T23:27:10.718Z,98.43
2022-09-25T23:29:40.429Z,98.37
2022-09-25T23:32:10.562Z,98.39
2022-09-25T23:34:40.297Z,98.50
2022-09-25T23:37:09.954Z,98.50
2022-09-25T23:39:42.796Z,98.58
2022-09-25T23:42:12.481Z,98.56
2022-09-25T23:44:42.228Z,98.63
2022-09-25T23:47:11.919Z,98.67
2022-09-25T23:49:41.652Z,98.81
2022-09-25T23:52:11.656Z,98.79
2022-09-25T23:54:44.047Z,98.89
2022-09-25T23:57:15.289Z,98.90
2022-09-25T23:59:44.977Z,98.94
